sensor_id;sensor_type;location;lat;lon;timestamp;pressure;altitude;pressure_sealevel;temperature;humidity
5053;BME280;2545;50.892;5.740;2022-12-18T00:00:20;56316.03;;;-142.21;100.00
5053;BME280;2545;50.892;5.740;2022-12-18T00:02:45;56257.19;;;-142.21;100.00
5053;BME280;2545;50.892;5.740;2022-12-18T00:05:11;56288.56;;;-142.21;100.00
5053;BME280;2545;50.892;5.740;2022-12-18T00:07:36;56304.25;;;-142.21;100.00
5053;BME280;2545;50.892;5.740;2022-12-18T00:10:02;56270.91;;;-142.21;100.00
5053;BME280;2545;50.892;5.740;2022-12-18T00:12:28;56284.66;;;-142.21;100.00
5053;BME280;2545;50.892;5.740;2022-12-18T00:14:53;56302.28;;;-142.21;100.00
5053;BME280;2545;50.892;5.740;2022-12-18T00:17:18;56276.81;;;-142.21;100.00
5053;BME280;2545;50.892;5.740;2022-12-18T00:19:44;56296.41;;;-142.21;100.00
5053;BME280;2545;50.892;5.740;2022-12-18T00:22:09;56276.81;;;-142.21;100.00
5053;BME280;2545;50.892;5.740;2022-12-18T00:24:34;56276.81;;;-142.21;100.00
5053;BME280;2545;50.892;5.740;2022-12-18T00:27:00;56296.41;;;-142.21;100.00
5053;BME280;2545;50.892;5.740;2022-12-18T00:29:25;56304.25;;;-142.21;100.00
5053;BME280;2545;50.892;5.740;2022-12-18T00:31:50;56298.38;;;-142.21;100.00
5053;BME280;2545;50.892;5.740;2022-12-18T00:34:16;56286.63;;;-142.21;100.00
5053;BME280;2545;50.892;5.740;2022-12-18T00:36:41;56217.97;;;-142.21;100.00
5053;BME280;2545;50.892;5.740;2022-12-18T00:39:07;56270.91;;;-142.21;100.00
5053;BME280;2545;50.892;5.740;2022-12-18T00:41:32;56235.63;;;-142.21;100.00
5053;BME280;2545;50.892;5.740;2022-12-18T00:44:17;56233.66;;;-142.21;100.00
5053;BME280;2545;50.892;5.740;2022-12-18T00:46:44;56265.03;;;-142.21;100.00
5053;BME280;2545;50.892;5.740;2022-12-18T00:49:09;56286.63;;;-142.21;100.00
5053;BME280;2545;50.892;5.740;2022-12-18T00:51:37;56282.69;;;-142.21;100.00
5053;BME280;2545;50.892;5.740;2022-12-18T00:54:03;56265.03;;;-142.21;100.00
5053;BME280;2545;50.892;5.740;2022-12-18T00:56:28;56257.19;;;-142.21;100.00
5053;BME280;2545;50.892;5.740;2022-12-18T00:58:54;56257.19;;;-142.21;100.00
5053;BME280;2545;50.892;5.740;2022-12-18T01:01:19;56276.81;;;-142.21;100.00
5053;BME280;2545;50.892;5.740;2022-12-18T01:03:44;56286.63;;;-142.21;100.00
5053;BME280;2545;50.892;5.740;2022-12-18T01:06:12;56237.59;;;-142.21;100.00
5053;BME280;2545;50.892;5.740;2022-12-18T01:08:38;56265.03;;;-142.21;100.00
5053;BME280;2545;50.892;5.740;2022-12-18T01:11:12;56284.66;;;-142.21;100.00
5053;BME280;2545;50.892;5.740;2022-12-18T01:13:38;56263.06;;;-142.21;100.00
5053;BME280;2545;50.892;5.740;2022-12-18T01:16:04;56272.88;;;-142.21;100.00
5053;BME280;2545;50.892;5.740;2022-12-18T01:18:30;56308.19;;;-142.21;100.00
5053;BME280;2545;50.892;5.740;2022-12-18T01:20:55;56272.88;;;-142.21;100.00
5053;BME280;2545;50.892;5.740;2022-12-18T01:23:21;56253.28;;;-142.21;100.00
5053;BME280;2545;50.892;5.740;2022-12-18T01:25:46;56268.97;;;-142.21;100.00
5053;BME280;2545;50.892;5.740;2022-12-18T01:28:11;56265.03;;;-142.21;100.00
5053;BME280;2545;50.892;5.740;2022-12-18T01:30:37;56280.72;;;-142.21;100.00
5053;BME280;2545;50.892;5.740;2022-12-18T01:33:04;56239.56;;;-142.21;100.00
5053;BME280;2545;50.892;5.740;2022-12-18T01:35:29;56245.44;;;-142.21;100.00
5053;BME280;2545;50.892;5.740;2022-12-18T01:37:55;56249.34;;;-142.21;100.00
5053;BME280;2545;50.892;5.740;2022-12-18T01:40:20;56255.22;;;-142.21;100.00
5053;BME280;2545;50.892;5.740;2022-12-18T01:42:51;56263.06;;;-142.21;100.00
5053;BME280;2545;50.892;5.740;2022-12-18T01:48:05;56245.44;;;-142.21;100.00
5053;BME280;2545;50.892;5.740;2022-12-18T01:50:36;56292.50;;;-142.21;100.00
5053;BME280;2545;50.892;5.740;2022-12-18T01:53:10;56261.13;;;-142.21;100.00
5053;BME280;2545;50.892;5.740;2022-12-18T01:55:48;56270.91;;;-142.21;100.00
5053;BME280;2545;50.892;5.740;2022-12-18T01:58:16;56265.03;;;-142.21;100.00
5053;BME280;2545;50.892;5.740;2022-12-18T02:00:42;56247.38;;;-142.21;100.00
5053;BME280;2545;50.892;5.740;2022-12-18T02:03:07;56296.41;;;-142.21;100.00
5053;BME280;2545;50.892;5.740;2022-12-18T02:06:05;56259.16;;;-142.21;100.00
5053;BME280;2545;50.892;5.740;2022-12-18T02:11:28;56265.03;;;-142.21;100.00
5053;BME280;2545;50.892;5.740;2022-12-18T02:19:25;56294.47;;;-142.21;100.00
5053;BME280;2545;50.892;5.740;2022-12-18T02:22:03;56310.13;;;-142.21;100.00
5053;BME280;2545;50.892;5.740;2022-12-18T02:27:08;56265.03;;;-142.21;100.00
5053;BME280;2545;50.892;5.740;2022-12-18T02:29:39;56276.81;;;-142.21;100.00
5053;BME280;2545;50.892;5.740;2022-12-18T02:32:09;56272.88;;;-142.21;100.00
5053;BME280;2545;50.892;5.740;2022-12-18T02:34:38;56239.56;;;-142.21;100.00
5053;BME280;2545;50.892;5.740;2022-12-18T02:37:07;56294.47;;;-142.21;100.00
5053;BME280;2545;50.892;5.740;2022-12-18T02:39:36;56265.03;;;-142.21;100.00
5053;BME280;2545;50.892;5.740;2022-12-18T02:42:02;56257.19;;;-142.21;100.00
5053;BME280;2545;50.892;5.740;2022-12-18T02:44:34;56280.72;;;-142.21;100.00
5053;BME280;2545;50.892;5.740;2022-12-18T02:47:00;56288.56;;;-142.21;100.00
5053;BME280;2545;50.892;5.740;2022-12-18T02:54:35;56237.59;;;-142.21;100.00
5053;BME280;2545;50.892;5.740;2022-12-18T02:57:15;56290.53;;;-142.21;100.00
5053;BME280;2545;50.892;5.740;2022-12-18T03:00:08;56257.19;;;-142.21;100.00
5053;BME280;2545;50.892;5.740;2022-12-18T03:02:39;56237.59;;;-142.21;100.00
5053;BME280;2545;50.892;5.740;2022-12-18T03:05:17;56267.00;;;-142.21;100.00
5053;BME280;2545;50.892;5.740;2022-12-18T03:07:51;56268.97;;;-142.21;100.00
5053;BME280;2545;50.892;5.740;2022-12-18T03:10:23;56237.59;;;-142.21;100.00
5053;BME280;2545;50.892;5.740;2022-12-18T03:13:02;56263.06;;;-142.21;100.00
5053;BME280;2545;50.892;5.740;2022-12-18T03:15:36;56282.69;;;-142.21;100.00
5053;BME280;2545;50.892;5.740;2022-12-18T03:18:07;56270.91;;;-142.21;100.00
5053;BME280;2545;50.892;5.740;2022-12-18T03:20:35;56288.56;;;-142.21;100.00
5053;BME280;2545;50.892;5.740;2022-12-18T03:23:09;56257.19;;;-142.21;100.00
5053;BME280;2545;50.892;5.740;2022-12-18T03:25:39;56253.28;;;-142.21;100.00
5053;BME280;2545;50.892;5.740;2022-12-18T03:28:09;56208.16;;;-142.21;100.00
5053;BME280;2545;50.892;5.740;2022-12-18T03:30:38;56268.97;;;-142.21;100.00
5053;BME280;2545;50.892;5.740;2022-12-18T03:33:12;56284.66;;;-142.21;100.00
5053;BME280;2545;50.892;5.740;2022-12-18T03:35:41;56261.13;;;-142.21;100.00
5053;BME280;2545;50.892;5.740;2022-12-18T03:38:08;56280.72;;;-142.21;100.00
5053;BME280;2545;50.892;5.740;2022-12-18T03:40:43;56243.47;;;-142.21;100.00
5053;BME280;2545;50.892;5.740;2022-12-18T03:46:02;56233.66;;;-142.21;100.00
5053;BME280;2545;50.892;5.740;2022-12-18T03:48:38;56245.44;;;-142.21;100.00
5053;BME280;2545;50.892;5.740;2022-12-18T03:54:00;56243.47;;;-142.21;100.00
5053;BME280;2545;50.892;5.740;2022-12-18T03:56:32;56257.19;;;-142.21;100.00
5053;BME280;2545;50.892;5.740;2022-12-18T03:59:00;56217.97;;;-142.21;100.00
5053;BME280;2545;50.892;5.740;2022-12-18T04:01:37;56274.84;;;-142.21;100.00
5053;BME280;2545;50.892;5.740;2022-12-18T04:04:04;56257.19;;;-142.21;100.00
5053;BME280;2545;50.892;5.740;2022-12-18T04:06:31;56284.66;;;-142.21;100.00
5053;BME280;2545;50.892;5.740;2022-12-18T04:09:00;56280.72;;;-142.21;100.00
5053;BME280;2545;50.892;5.740;2022-12-18T04:11:25;56290.53;;;-142.21;100.00
5053;BME280;2545;50.892;5.740;2022-12-18T04:13:55;56265.03;;;-142.21;100.00
5053;BME280;2545;50.892;5.740;2022-12-18T04:16:21;56241.50;;;-142.21;100.00
5053;BME280;2545;50.892;5.740;2022-12-18T04:18:46;56257.19;;;-142.21;100.00
5053;BME280;2545;50.892;5.740;2022-12-18T04:21:12;56249.34;;;-142.21;100.00
5053;BME280;2545;50.892;5.740;2022-12-18T04:23:37;56265.03;;;-142.21;100.00
5053;BME280;2545;50.892;5.740;2022-12-18T04:26:02;56274.84;;;-142.21;100.00
5053;BME280;2545;50.892;5.740;2022-12-18T04:28:28;56268.97;;;-142.21;100.00
5053;BME280;2545;50.892;5.740;2022-12-18T04:30:53;56247.38;;;-142.21;100.00
5053;BME280;2545;50.892;5.740;2022-12-18T04:33:18;56288.56;;;-142.21;100.00
5053;BME280;2545;50.892;5.740;2022-12-18T04:35:44;56233.66;;;-142.21;100.00
5053;BME280;2545;50.892;5.740;2022-12-18T04:38:09;56265.03;;;-142.21;100.00
5053;BME280;2545;50.892;5.740;2022-12-18T04:40:36;56284.66;;;-142.21;100.00
5053;BME280;2545;50.892;5.740;2022-12-18T04:43:02;56268.97;;;-142.21;100.00
5053;BME280;2545;50.892;5.740;2022-12-18T04:45:27;56253.28;;;-142.21;100.00
5053;BME280;2545;50.892;5.740;2022-12-18T04:47:53;56255.22;;;-142.21;100.00
5053;BME280;2545;50.892;5.740;2022-12-18T04:50:18;56225.81;;;-142.21;100.00
5053;BME280;2545;50.892;5.740;2022-12-18T04:52:43;56235.63;;;-142.21;100.00
5053;BME280;2545;50.892;5.740;2022-12-18T04:55:08;56231.72;;;-142.21;100.00
5053;BME280;2545;50.892;5.740;2022-12-18T04:57:34;56227.78;;;-142.21;100.00
5053;BME280;2545;50.892;5.740;2022-12-18T04:59:59;56265.03;;;-142.21;100.00
5053;BME280;2545;50.892;5.740;2022-12-18T05:02:24;56280.72;;;-142.21;100.00
5053;BME280;2545;50.892;5.740;2022-12-18T05:04:50;56237.59;;;-142.21;100.00
5053;BME280;2545;50.892;5.740;2022-12-18T05:07:15;56274.84;;;-142.21;100.00
5053;BME280;2545;50.892;5.740;2022-12-18T05:09:40;56229.75;;;-142.21;100.00
5053;BME280;2545;50.892;5.740;2022-12-18T05:12:06;56239.56;;;-142.21;100.00
5053;BME280;2545;50.892;5.740;2022-12-18T05:14:31;56253.28;;;-142.21;100.00
5053;BME280;2545;50.892;5.740;2022-12-18T05:16:56;56272.88;;;-142.21;100.00
5053;BME280;2545;50.892;5.740;2022-12-18T05:19:22;56233.66;;;-142.21;100.00
5053;BME280;2545;50.892;5.740;2022-12-18T05:21:47;56235.63;;;-142.21;100.00
5053;BME280;2545;50.892;5.740;2022-12-18T05:24:13;56259.16;;;-142.21;100.00
5053;BME280;2545;50.892;5.740;2022-12-18T05:26:38;56255.22;;;-142.21;100.00
5053;BME280;2545;50.892;5.740;2022-12-18T05:29:03;56233.66;;;-142.21;100.00
5053;BME280;2545;50.892;5.740;2022-12-18T05:31:28;56270.91;;;-142.21;100.00
5053;BME280;2545;50.892;5.740;2022-12-18T05:33:54;56214.06;;;-142.21;100.00
5053;BME280;2545;50.892;5.740;2022-12-18T05:36:19;56272.88;;;-142.21;100.00
5053;BME280;2545;50.892;5.740;2022-12-18T05:38:45;56265.03;;;-142.21;100.00
5053;BME280;2545;50.892;5.740;2022-12-18T05:41:10;56270.91;;;-142.21;100.00
5053;BME280;2545;50.892;5.740;2022-12-18T05:43:37;56255.22;;;-142.21;100.00
5053;BME280;2545;50.892;5.740;2022-12-18T05:46:07;56257.19;;;-142.21;100.00
5053;BME280;2545;50.892;5.740;2022-12-18T05:48:33;56255.22;;;-142.21;100.00
5053;BME280;2545;50.892;5.740;2022-12-18T05:51:04;56268.97;;;-142.21;100.00
5053;BME280;2545;50.892;5.740;2022-12-18T05:53:31;56202.28;;;-142.21;100.00
5053;BME280;2545;50.892;5.740;2022-12-18T05:56:00;56255.22;;;-142.21;100.00
5053;BME280;2545;50.892;5.740;2022-12-18T05:58:25;56294.47;;;-142.21;100.00
5053;BME280;2545;50.892;5.740;2022-12-18T06:00:51;56247.38;;;-142.21;100.00
5053;BME280;2545;50.892;5.740;2022-12-18T06:03:16;56286.63;;;-142.21;100.00
5053;BME280;2545;50.892;5.740;2022-12-18T06:05:43;56284.66;;;-142.21;100.00
5053;BME280;2545;50.892;5.740;2022-12-18T06:08:10;56247.38;;;-142.21;100.00
5053;BME280;2545;50.892;5.740;2022-12-18T06:10:36;56276.81;;;-142.21;100.00
5053;BME280;2545;50.892;5.740;2022-12-18T06:13:01;56267.00;;;-142.21;100.00
5053;BME280;2545;50.892;5.740;2022-12-18T06:15:27;56276.81;;;-142.21;100.00
5053;BME280;2545;50.892;5.740;2022-12-18T06:17:52;56214.06;;;-142.21;100.00
5053;BME280;2545;50.892;5.740;2022-12-18T06:20:18;56265.03;;;-142.21;100.00
5053;BME280;2545;50.892;5.740;2022-12-18T06:22:44;56272.88;;;-142.21;100.00
5053;BME280;2545;50.892;5.740;2022-12-18T06:25:10;56227.78;;;-142.21;100.00
5053;BME280;2545;50.892;5.740;2022-12-18T06:27:35;56257.19;;;-142.21;100.00
5053;BME280;2545;50.892;5.740;2022-12-18T06:30:00;56276.81;;;-142.21;100.00
5053;BME280;2545;50.892;5.740;2022-12-18T06:32:26;56206.22;;;-142.21;100.00
5053;BME280;2545;50.892;5.740;2022-12-18T06:34:52;56267.00;;;-142.21;100.00
5053;BME280;2545;50.892;5.740;2022-12-18T06:37:18;56253.28;;;-142.21;100.00
5053;BME280;2545;50.892;5.740;2022-12-18T06:39:44;56249.34;;;-142.21;100.00
5053;BME280;2545;50.892;5.740;2022-12-18T06:42:09;56227.78;;;-142.21;100.00
5053;BME280;2545;50.892;5.740;2022-12-18T06:44:34;56316.03;;;-142.21;100.00
5053;BME280;2545;50.892;5.740;2022-12-18T06:47:00;56227.78;;;-142.21;100.00
5053;BME280;2545;50.892;5.740;2022-12-18T06:49:25;56274.84;;;-142.21;100.00
5053;BME280;2545;50.892;5.740;2022-12-18T06:51:50;56245.44;;;-142.21;100.00
5053;BME280;2545;50.892;5.740;2022-12-18T06:54:17;56259.16;;;-142.21;100.00
5053;BME280;2545;50.892;5.740;2022-12-18T06:56:44;56263.06;;;-142.21;100.00
5053;BME280;2545;50.892;5.740;2022-12-18T06:59:09;56219.94;;;-142.21;100.00
5053;BME280;2545;50.892;5.740;2022-12-18T07:01:35;56255.22;;;-142.21;100.00
5053;BME280;2545;50.892;5.740;2022-12-18T07:04:00;56268.97;;;-142.21;100.00
5053;BME280;2545;50.892;5.740;2022-12-18T07:06:26;56265.03;;;-142.21;100.00
5053;BME280;2545;50.892;5.740;2022-12-18T07:08:52;56312.09;;;-142.21;100.00
5053;BME280;2545;50.892;5.740;2022-12-18T07:11:18;56212.09;;;-142.21;100.00
5053;BME280;2545;50.892;5.740;2022-12-18T07:13:44;56251.31;;;-142.21;100.00
5053;BME280;2545;50.892;5.740;2022-12-18T07:16:20;56272.88;;;-142.21;100.00
5053;BME280;2545;50.892;5.740;2022-12-18T07:18:45;56235.63;;;-142.21;100.00
5053;BME280;2545;50.892;5.740;2022-12-18T07:21:16;56239.56;;;-142.21;100.00
5053;BME280;2545;50.892;5.740;2022-12-18T07:23:42;56259.16;;;-142.21;100.00
5053;BME280;2545;50.892;5.740;2022-12-18T07:26:15;56233.66;;;-142.21;100.00
5053;BME280;2545;50.892;5.740;2022-12-18T07:28:41;56270.91;;;-142.21;100.00
5053;BME280;2545;50.892;5.740;2022-12-18T07:31:12;56274.84;;;-142.21;100.00
5053;BME280;2545;50.892;5.740;2022-12-18T07:33:38;56270.91;;;-142.21;100.00
5053;BME280;2545;50.892;5.740;2022-12-18T07:36:04;56257.19;;;-142.21;100.00
5053;BME280;2545;50.892;5.740;2022-12-18T07:38:31;56255.22;;;-142.21;100.00
5053;BME280;2545;50.892;5.740;2022-12-18T07:41:08;56247.38;;;-142.21;100.00
5053;BME280;2545;50.892;5.740;2022-12-18T07:43:34;56290.53;;;-142.21;100.00
5053;BME280;2545;50.892;5.740;2022-12-18T07:45:59;56253.28;;;-142.21;100.00
5053;BME280;2545;50.892;5.740;2022-12-18T07:48:25;56251.31;;;-142.21;100.00
5053;BME280;2545;50.892;5.740;2022-12-18T07:50:51;56249.34;;;-142.21;100.00
5053;BME280;2545;50.892;5.740;2022-12-18T07:53:16;56312.09;;;-142.21;100.00
5053;BME280;2545;50.892;5.740;2022-12-18T07:55:41;56265.03;;;-142.21;100.00
5053;BME280;2545;50.892;5.740;2022-12-18T07:58:07;56263.06;;;-142.21;100.00
5053;BME280;2545;50.892;5.740;2022-12-18T08:00:33;56239.56;;;-142.21;100.00
5053;BME280;2545;50.892;5.740;2022-12-18T08:02:59;56247.38;;;-142.21;100.00
5053;BME280;2545;50.892;5.740;2022-12-18T08:05:25;56296.41;;;-142.21;100.00
5053;BME280;2545;50.892;5.740;2022-12-18T08:07:51;56265.03;;;-142.21;100.00
5053;BME280;2545;50.892;5.740;2022-12-18T08:10:17;56261.13;;;-142.21;100.00
5053;BME280;2545;50.892;5.740;2022-12-18T08:12:42;56274.84;;;-142.21;100.00
5053;BME280;2545;50.892;5.740;2022-12-18T08:15:08;56272.88;;;-142.21;100.00
5053;BME280;2545;50.892;5.740;2022-12-18T08:17:33;56268.97;;;-142.21;100.00
5053;BME280;2545;50.892;5.740;2022-12-18T08:19:58;56261.13;;;-142.21;100.00
5053;BME280;2545;50.892;5.740;2022-12-18T08:22:24;56239.56;;;-142.21;100.00
5053;BME280;2545;50.892;5.740;2022-12-18T08:24:49;56276.81;;;-142.21;100.00
5053;BME280;2545;50.892;5.740;2022-12-18T08:27:14;56296.41;;;-142.21;100.00
5053;BME280;2545;50.892;5.740;2022-12-18T08:29:40;56296.41;;;-142.21;100.00
5053;BME280;2545;50.892;5.740;2022-12-18T08:32:05;56312.09;;;-142.21;100.00
5053;BME280;2545;50.892;5.740;2022-12-18T08:34:31;56253.28;;;-142.21;100.00
5053;BME280;2545;50.892;5.740;2022-12-18T08:36:56;56272.88;;;-142.21;100.00
5053;BME280;2545;50.892;5.740;2022-12-18T08:39:21;56243.47;;;-142.21;100.00
5053;BME280;2545;50.892;5.740;2022-12-18T08:41:47;56280.72;;;-142.21;100.00
5053;BME280;2545;50.892;5.740;2022-12-18T08:44:32;56300.34;;;-142.21;100.00
5053;BME280;2545;50.892;5.740;2022-12-18T08:47:05;56290.53;;;-142.21;100.00
5053;BME280;2545;50.892;5.740;2022-12-18T08:49:31;56270.91;;;-142.21;100.00
5053;BME280;2545;50.892;5.740;2022-12-18T08:51:56;56292.50;;;-142.21;100.00
5053;BME280;2545;50.892;5.740;2022-12-18T08:54:22;56278.78;;;-142.21;100.00
5053;BME280;2545;50.892;5.740;2022-12-18T08:56:48;56239.56;;;-142.21;100.00
5053;BME280;2545;50.892;5.740;2022-12-18T08:59:15;56268.97;;;-142.21;100.00
5053;BME280;2545;50.892;5.740;2022-12-18T09:01:40;56284.66;;;-142.21;100.00
5053;BME280;2545;50.892;5.740;2022-12-18T09:04:05;56302.28;;;-142.21;100.00
5053;BME280;2545;50.892;5.740;2022-12-18T09:06:31;56310.13;;;-142.21;100.00
5053;BME280;2545;50.892;5.740;2022-12-18T09:08:57;56261.13;;;-142.21;100.00
5053;BME280;2545;50.892;5.740;2022-12-18T09:11:24;56288.56;;;-142.21;100.00
5053;BME280;2545;50.892;5.740;2022-12-18T09:13:51;56282.69;;;-142.21;100.00
5053;BME280;2545;50.892;5.740;2022-12-18T09:16:17;56316.03;;;-142.21;100.00
5053;BME280;2545;50.892;5.740;2022-12-18T09:18:42;56292.50;;;-142.21;100.00
5053;BME280;2545;50.892;5.740;2022-12-18T09:21:09;56268.97;;;-142.21;100.00
5053;BME280;2545;50.892;5.740;2022-12-18T09:23:35;56308.19;;;-142.21;100.00
5053;BME280;2545;50.892;5.740;2022-12-18T09:26:00;56319.94;;;-142.21;100.00
5053;BME280;2545;50.892;5.740;2022-12-18T09:28:25;56286.63;;;-142.21;100.00
5053;BME280;2545;50.892;5.740;2022-12-18T09:30:51;56294.47;;;-142.21;100.00
5053;BME280;2545;50.892;5.740;2022-12-18T09:33:17;56321.91;;;-142.21;100.00
5053;BME280;2545;50.892;5.740;2022-12-18T09:35:44;56274.84;;;-142.21;100.00
5053;BME280;2545;50.892;5.740;2022-12-18T09:38:12;56294.47;;;-142.21;100.00
5053;BME280;2545;50.892;5.740;2022-12-18T09:40:47;56319.94;;;-142.21;100.00
5053;BME280;2545;50.892;5.740;2022-12-18T09:43:37;56296.41;;;-142.21;100.00
5053;BME280;2545;50.892;5.740;2022-12-18T09:46:07;56365.06;;;-142.21;100.00
5053;BME280;2545;50.892;5.740;2022-12-18T09:48:40;56327.78;;;-142.21;98.48
5053;BME280;2545;50.892;5.740;2022-12-18T09:51:19;56292.50;;;-142.21;97.23
5053;BME280;2545;50.892;5.740;2022-12-18T09:53:51;56296.41;;;-142.21;96.02
5053;BME280;2545;50.892;5.740;2022-12-18T09:56:20;56329.75;;;-142.21;93.93
5053;BME280;2545;50.892;5.740;2022-12-18T09:59:01;56339.56;;;-142.21;92.57
5053;BME280;2545;50.892;5.740;2022-12-18T10:01:28;56353.28;;;-142.21;91.86
5053;BME280;2545;50.892;5.740;2022-12-18T10:03:54;56327.78;;;-142.21;91.11
5053;BME280;2545;50.892;5.740;2022-12-18T10:17:51;56312.09;;;-142.21;84.64
5053;BME280;2545;50.892;5.740;2022-12-18T10:20:47;56304.25;;;-142.21;84.56
5053;BME280;2545;50.892;5.740;2022-12-18T10:25:52;56302.28;;;-142.21;85.67
5053;BME280;2545;50.892;5.740;2022-12-18T10:28:19;56308.19;;;-142.21;86.36
5053;BME280;2545;50.892;5.740;2022-12-18T10:30:45;56347.41;;;-142.21;86.33
5053;BME280;2545;50.892;5.740;2022-12-18T10:33:16;56345.44;;;-142.21;85.92
5053;BME280;2545;50.892;5.740;2022-12-18T10:35:43;56321.91;;;-142.21;86.29
5053;BME280;2545;50.892;5.740;2022-12-18T10:43:34;56323.88;;;-142.21;84.51
5053;BME280;2545;50.892;5.740;2022-12-18T10:46:19;56323.88;;;-142.21;84.75
5053;BME280;2545;50.892;5.740;2022-12-18T10:48:56;56296.41;;;-142.21;84.93
5053;BME280;2545;50.892;5.740;2022-12-18T10:51:32;56314.06;;;-142.21;85.96
5053;BME280;2545;50.892;5.740;2022-12-18T10:54:01;56294.47;;;-142.21;85.80
5053;BME280;2545;50.892;5.740;2022-12-18T10:56:28;56319.94;;;-142.21;86.58
5053;BME280;2545;50.892;5.740;2022-12-18T10:59:00;56319.94;;;-142.21;87.58
5053;BME280;2545;50.892;5.740;2022-12-18T11:01:27;56302.28;;;-142.21;87.21
5053;BME280;2545;50.892;5.740;2022-12-18T11:06:20;56341.53;;;-142.21;87.27
5053;BME280;2545;50.892;5.740;2022-12-18T11:09:04;56335.63;;;-142.21;85.23
5053;BME280;2545;50.892;5.740;2022-12-18T11:11:31;56339.56;;;-142.21;83.42
5053;BME280;2545;50.892;5.740;2022-12-18T11:16:26;56321.91;;;-142.21;82.20
5053;BME280;2545;50.892;5.740;2022-12-18T11:18:53;56329.75;;;-142.21;82.16
5053;BME280;2545;50.892;5.740;2022-12-18T11:21:18;56327.78;;;-142.21;82.90
5053;BME280;2545;50.892;5.740;2022-12-18T11:23:50;56325.84;;;-142.21;83.71
5053;BME280;2545;50.892;5.740;2022-12-18T11:26:16;56359.16;;;-142.21;85.47
5053;BME280;2545;50.892;5.740;2022-12-18T11:29:08;56296.41;;;-142.21;87.12
5053;BME280;2545;50.892;5.740;2022-12-18T11:31:34;56292.50;;;-142.21;88.23
5053;BME280;2545;50.892;5.740;2022-12-18T11:34:26;56302.28;;;-142.21;89.24
5053;BME280;2545;50.892;5.740;2022-12-18T11:36:53;56374.84;;;-142.21;89.67
5053;BME280;2545;50.892;5.740;2022-12-18T11:42:04;56317.97;;;-142.21;87.91
5053;BME280;2545;50.892;5.740;2022-12-18T11:44:57;56265.03;;;-142.21;86.76
5053;BME280;2545;50.892;5.740;2022-12-18T11:47:40;56296.41;;;-142.21;85.90
5053;BME280;2545;50.892;5.740;2022-12-18T11:50:14;56329.75;;;-142.21;85.94
5053;BME280;2545;50.892;5.740;2022-12-18T11:52:41;56312.09;;;-142.21;85.68
5053;BME280;2545;50.892;5.740;2022-12-18T11:55:14;56347.41;;;-142.21;84.60
5053;BME280;2545;50.892;5.740;2022-12-18T12:00:21;56368.97;;;-142.21;82.47
5053;BME280;2545;50.892;5.740;2022-12-18T12:05:27;56339.56;;;-142.21;79.43
5053;BME280;2545;50.892;5.740;2022-12-18T12:11:08;56319.94;;;-142.21;76.88
5053;BME280;2545;50.892;5.740;2022-12-18T12:16:33;56298.38;;;-142.21;77.54
5053;BME280;2545;50.892;5.740;2022-12-18T12:19:23;56327.78;;;-142.21;76.86
5053;BME280;2545;50.892;5.740;2022-12-18T12:22:03;56331.72;;;-142.21;74.75
5053;BME280;2545;50.892;5.740;2022-12-18T12:27:40;56343.47;;;-142.21;74.06
5053;BME280;2545;50.892;5.740;2022-12-18T12:30:18;56325.84;;;-142.21;74.61
5053;BME280;2545;50.892;5.740;2022-12-18T12:35:40;56329.75;;;-142.21;76.23
5053;BME280;2545;50.892;5.740;2022-12-18T12:38:13;56335.63;;;-142.21;75.99
5053;BME280;2545;50.892;5.740;2022-12-18T12:40:45;56321.91;;;-142.21;76.35
5053;BME280;2545;50.892;5.740;2022-12-18T12:46:00;56321.91;;;-142.21;75.48
5053;BME280;2545;50.892;5.740;2022-12-18T12:51:04;56316.03;;;-142.21;75.09
5053;BME280;2545;50.892;5.740;2022-12-18T12:53:35;56341.53;;;-142.21;76.47
5053;BME280;2545;50.892;5.740;2022-12-18T12:56:03;56333.69;;;-142.21;77.17
5053;BME280;2545;50.892;5.740;2022-12-18T13:01:25;56284.66;;;-142.21;78.75
5053;BME280;2545;50.892;5.740;2022-12-18T13:06:53;56319.94;;;-142.21;80.30
5053;BME280;2545;50.892;5.740;2022-12-18T13:09:23;56317.97;;;-142.21;81.31
5053;BME280;2545;50.892;5.740;2022-12-18T13:11:48;56329.75;;;-142.21;82.07
5053;BME280;2545;50.892;5.740;2022-12-18T13:14:34;56312.09;;;-142.21;81.59
5053;BME280;2545;50.892;5.740;2022-12-18T13:19:48;56343.47;;;-142.21;81.18
5053;BME280;2545;50.892;5.740;2022-12-18T13:22:22;56335.63;;;-142.21;80.69
5053;BME280;2545;50.892;5.740;2022-12-18T13:24:49;56331.72;;;-142.21;81.06
5053;BME280;2545;50.892;5.740;2022-12-18T13:41:01;56304.25;;;-142.21;81.15
5053;BME280;2545;50.892;5.740;2022-12-18T13:48:24;56302.28;;;-142.21;80.57
5053;BME280;2545;50.892;5.740;2022-12-18T13:51:03;56351.31;;;-142.21;80.01
5053;BME280;2545;50.892;5.740;2022-12-18T13:53:43;56380.75;;;-142.21;80.97
5053;BME280;2545;50.892;5.740;2022-12-18T13:56:17;56298.38;;;-142.21;81.20
5053;BME280;2545;50.892;5.740;2022-12-18T13:58:46;56343.47;;;-142.21;80.79
5053;BME280;2545;50.892;5.740;2022-12-18T14:01:22;56351.31;;;-142.21;81.12
5053;BME280;2545;50.892;5.740;2022-12-18T14:03:48;56337.59;;;-142.21;81.52
5053;BME280;2545;50.892;5.740;2022-12-18T14:06:14;56335.63;;;-142.21;81.35
5053;BME280;2545;50.892;5.740;2022-12-18T14:08:41;56353.28;;;-142.21;81.56
5053;BME280;2545;50.892;5.740;2022-12-18T14:11:19;56331.72;;;-142.21;81.64
5053;BME280;2545;50.892;5.740;2022-12-18T14:13:45;56317.97;;;-142.21;80.82
5053;BME280;2545;50.892;5.740;2022-12-18T14:16:14;56321.91;;;-142.21;81.58
5053;BME280;2545;50.892;5.740;2022-12-18T14:18:50;56376.81;;;-142.21;85.54
5053;BME280;2545;50.892;5.740;2022-12-18T14:21:29;56333.69;;;-142.21;84.85
5053;BME280;2545;50.892;5.740;2022-12-18T14:24:16;56316.03;;;-142.21;85.97
5053;BME280;2545;50.892;5.740;2022-12-18T14:26:42;56331.72;;;-142.21;87.11
5053;BME280;2545;50.892;5.740;2022-12-18T14:29:26;56329.75;;;-142.21;87.93
5053;BME280;2545;50.892;5.740;2022-12-18T14:32:24;56347.41;;;-142.21;88.62
5053;BME280;2545;50.892;5.740;2022-12-18T14:34:51;56335.63;;;-142.21;89.42
5053;BME280;2545;50.892;5.740;2022-12-18T14:37:21;56333.69;;;-142.21;89.85
5053;BME280;2545;50.892;5.740;2022-12-18T14:40:00;56333.69;;;-142.21;90.57
5053;BME280;2545;50.892;5.740;2022-12-18T14:42:29;56341.53;;;-142.21;91.61